Joplin Regional Airport
KJLN : now visible

Airfield :











YOU CAN JOIN US ON...

 
LOGIN :

Register | Disclaimer

   EN    FR    IT 

 









Legend :    VFR   Marginal VFR   IFR   Intensive IFR   Very Intensive IFR
Visi :
Ceiling :
>= 8 km
>= 3000ft
5 to 8 km
1000 to 3000 ft
1500m to 5 km
500 to 1000 ft
800 to 1500m
200 to 500 ft
< 800m
< 200 ft
Symbols :   Thunderstorms  Fog  Heavy snow  Heavy precipitations  Wind > 20 kt






- Airport Elevation : 981 ft
- IATA code : JLN


KJLN - Joplin Regional

CURRENT METAR :
  • 171653Z 26009KT 210V280 10SM BKN100 OVC120 09/M01 A3002 RMK AO2 SLP167 T00891006

EXPIRED METARs :
  • 171553Z 20011KT 10SM OVC080 08/M01 A3004 RMK AO2 RAB10E47 SLP172 P0000 T00781006
  • 171453Z 21009KT 10SM OVC100 08/M02 A3004 RMK AO2 SLP173 T00781022 50001

TAF KJLN
Valid from the 17 at 18:00 until the 18 at 18:00 UTC


171720Z 1718/1818 26009KT P6SM BKN100 OVC120
FM172000 31008KT P6SM OVC120
FM181200 19005KT P6SM OVC200
FM181600 21010KT P6SM OVC100



MET'MAP, your aeronautical weather chart ! - Copyright ORBIFLY December 2007 - Disclaimer

ORBIFLY MET'MAP TEAM :

Programming & Development : Alexandra Zaïnal
Concept & Development : Baudouin d'Aumeries
Co-Development & Prog : Marc-Olivier Méhu
Technical & hardware support : Manuel Goepfert

Contact : metmap@orbifly.com




SOURCES & CREDITS :

   NOAA       Earth
Advisory